Time;durP1;ratioP1;P1;durP2;ratioP2;P2;SDS_P1;SDS_P2;PMS_P1;PMS_P2;Temp;Humidity;BMP_temperature;BMP_pressure;BME280_temperature;BME280_humidity;BME280_pressure;Samples;Min_cycle;Max_cycle;Signal;HPM_P1;HPM_P2
2022/05/09 00:01:50;;;;;;;15.20;6.18;;;;;;;;;;5118354;27;20127;-79
2022/05/09 00:04:16;;;;;;;13.80;6.57;;;;;;;;;;5076231;28;20084;-79
2022/05/09 00:06:42;;;;;;;15.48;6.18;;;;;;;;;;5092622;28;20035;-79
2022/05/09 00:09:08;;;;;;;12.73;6.57;;;;;;;;;;5104035;28;20046;-79
2022/05/09 00:11:35;;;;;;;13.88;6.47;;;;;;;;;;5100356;28;20039;-79
2022/05/09 00:14:01;;;;;;;15.10;6.22;;;;;;;;;;5079307;28;20112;-79
2022/05/09 00:16:33;;;;;;;18.85;7.03;;;;;;;;;;5109279;27;20047;-79
2022/05/09 00:19:09;;;;;;;14.45;6.60;;;;;;;;;;5103958;28;20437;-79
2022/05/09 00:21:37;;;;;;;13.02;6.65;;;;;;;;;;5118995;27;20068;-79
2022/05/09 00:24:03;;;;;;;11.43;5.70;;;;;;;;;;5094384;28;20046;-79
2022/05/09 00:26:32;;;;;;;14.32;6.55;;;;;;;;;;5089507;28;20044;-79
2022/05/09 00:28:59;;;;;;;16.30;6.88;;;;;;;;;;5114430;27;20039;-79
2022/05/09 00:31:26;;;;;;;15.07;6.95;;;;;;;;;;5081423;28;20073;-79
2022/05/09 00:33:52;;;;;;;17.67;7.13;;;;;;;;;;5105453;28;20063;-78
2022/05/09 00:36:19;;;;;;;15.70;6.55;;;;;;;;;;5087807;28;20059;-78
2022/05/09 00:38:45;;;;;;;14.00;7.15;;;;;;;;;;5087885;28;20047;-78
2022/05/09 00:43:58;;;;;;;18.30;7.15;;;;;;;;;;5087685;28;20047;-78
2022/05/09 00:46:24;;;;;;;14.63;6.13;;;;;;;;;;5088148;28;20117;-79
2022/05/09 00:48:50;;;;;;;14.10;6.68;;;;;;;;;;5088080;28;20061;-78
2022/05/09 00:51:20;;;;;;;14.73;7.10;;;;;;;;;;5088144;28;20127;-78
2022/05/09 00:53:47;;;;;;;14.65;7.25;;;;;;;;;;5087650;28;20075;-79
2022/05/09 00:56:22;;;;;;;15.45;7.10;;;;;;;;;;5070927;28;20036;-79
2022/05/09 00:58:52;;;;;;;17.23;6.53;;;;;;;;;;5087783;28;20422;-78
2022/05/09 01:01:20;;;;;;;16.98;6.38;;;;;;;;;;5087427;28;20036;-78
2022/05/09 01:03:49;;;;;;;14.98;6.82;;;;;;;;;;5070174;28;20044;-78
2022/05/09 01:06:15;;;;;;;21.77;7.22;;;;;;;;;;5087619;28;20090;-78
2022/05/09 01:08:41;;;;;;;14.07;6.53;;;;;;;;;;5087686;28;20395;-78
2022/05/09 01:11:10;;;;;;;16.83;6.93;;;;;;;;;;5087666;28;20040;-78
2022/05/09 01:13:39;;;;;;;16.67;7.50;;;;;;;;;;5070555;28;20302;-78
2022/05/09 01:16:05;;;;;;;15.05;6.68;;;;;;;;;;5087308;28;20043;-78
2022/05/09 01:18:32;;;;;;;16.02;7.78;;;;;;;;;;5088097;28;20089;-79
2022/05/09 01:20:58;;;;;;;17.33;6.75;;;;;;;;;;5086823;28;20037;-78
2022/05/09 01:23:24;;;;;;;15.65;7.65;;;;;;;;;;5087572;28;20036;-78
2022/05/09 01:25:54;;;;;;;17.08;7.10;;;;;;;;;;5070403;28;20040;-78
2022/05/09 01:28:25;;;;;;;;;;;;;;;;;;5087648;28;20170;-78
2022/05/09 01:30:55;;;;;;;11.75;6.57;;;;;;;;;;5086996;28;19923;-78
2022/05/09 01:33:21;;;;;;;18.20;7.00;;;;;;;;;;5070292;28;20119;-78
2022/05/09 01:35:51;;;;;;;16.83;6.90;;;;;;;;;;5091255;28;20150;-78
2022/05/09 01:38:18;;;;;;;18.45;7.38;;;;;;;;;;5084217;28;20628;-78
2022/05/09 01:40:44;;;;;;;15.30;7.15;;;;;;;;;;5091174;28;20043;-78
2022/05/09 01:43:10;;;;;;;16.80;7.93;;;;;;;;;;5108146;28;20513;-78
2022/05/09 01:45:37;;;;;;;13.60;6.57;;;;;;;;;;5098809;28;20538;-78
2022/05/09 01:50:48;;;;;;;17.40;6.95;;;;;;;;;;5090910;28;20494;-78
2022/05/09 01:53:15;;;;;;;16.23;6.72;;;;;;;;;;5100633;28;20484;-78
2022/05/09 01:55:41;;;;;;;16.67;7.88;;;;;;;;;;5081056;28;20043;-78
2022/05/09 01:58:07;;;;;;;18.60;7.47;;;;;;;;;;5092386;28;20090;-78
2022/05/09 02:00:33;;;;;;;14.90;7.18;;;;;;;;;;5103781;28;20518;-78
2022/05/09 02:03:02;;;;;;;15.43;7.20;;;;;;;;;;5093440;28;20036;-78
2022/05/09 02:05:28;;;;;;;15.65;7.80;;;;;;;;;;5096767;28;20044;-78
2022/05/09 02:07:55;;;;;;;16.50;7.10;;;;;;;;;;5101472;28;20039;-78
2022/05/09 02:10:21;;;;;;;15.45;7.45;;;;;;;;;;5074388;28;20040;-78
2022/05/09 02:12:47;;;;;;;18.52;7.63;;;;;;;;;;5101153;28;20044;-78
2022/05/09 02:15:14;;;;;;;16.38;7.10;;;;;;;;;;5082338;28;20109;-78
2022/05/09 02:17:40;;;;;;;15.90;7.13;;;;;;;;;;5097459;28;20491;-77
2022/05/09 02:20:07;;;;;;;18.10;7.20;;;;;;;;;;5090252;28;20071;-77
2022/05/09 02:22:33;;;;;;;14.25;6.90;;;;;;;;;;5096234;28;20043;-78
2022/05/09 02:25:00;;;;;;;12.30;6.50;;;;;;;;;;5101786;28;20047;-78
2022/05/09 02:27:26;;;;;;;15.05;6.65;;;;;;;;;;5103828;28;20039;-77
2022/05/09 02:29:52;;;;;;;12.82;6.45;;;;;;;;;;5094196;28;20089;-77
2022/05/09 02:32:20;;;;;;;12.35;6.90;;;;;;;;;;5106485;28;20040;-77
2022/05/09 02:34:46;;;;;;;14.50;7.18;;;;;;;;;;5095448;28;20051;-77
2022/05/09 02:37:12;;;;;;;14.10;6.78;;;;;;;;;;5093469;28;20051;-77
2022/05/09 02:39:38;;;;;;;15.13;7.10;;;;;;;;;;5093790;28;20046;-77
2022/05/09 02:42:05;;;;;;;15.55;7.40;;;;;;;;;;5093845;28;20410;-77
2022/05/09 02:44:31;;;;;;;14.60;7.18;;;;;;;;;;5093447;28;20077;-77
2022/05/09 02:46:57;;;;;;;15.77;7.50;;;;;;;;;;5093385;28;20504;-77
2022/05/09 02:49:24;;;;;;;17.15;7.90;;;;;;;;;;5094012;28;20035;-77
2022/05/09 02:51:52;;;;;;;16.98;7.85;;;;;;;;;;5093414;28;20122;-77
2022/05/09 02:54:18;;;;;;;13.23;6.50;;;;;;;;;;5092970;28;20045;-77
2022/05/09 02:56:44;;;;;;;12.90;6.25;;;;;;;;;;5076628;28;20127;-78
2022/05/09 02:59:10;;;;;;;14.73;6.50;;;;;;;;;;5093282;28;20035;-78
2022/05/09 03:01:37;;;;;;;13.65;6.88;;;;;;;;;;5093286;28;20039;-78
2022/05/09 03:06:48;;;;;;;13.77;6.75;;;;;;;;;;5092990;28;20047;-78
2022/05/09 03:09:14;;;;;;;14.57;7.57;;;;;;;;;;5093120;28;20040;-78
2022/05/09 03:11:40;;;;;;;15.60;7.47;;;;;;;;;;5092797;28;20126;-78
2022/05/09 03:14:07;;;;;;;16.95;7.65;;;;;;;;;;5092997;28;20038;-78
2022/05/09 03:16:34;;;;;;;15.20;7.60;;;;;;;;;;5076100;28;20036;-78
2022/05/09 03:19:00;;;;;;;14.60;7.32;;;;;;;;;;5092767;28;20036;-78
2022/05/09 03:21:26;;;;;;;18.40;7.78;;;;;;;;;;5093042;28;20406;-78
2022/05/09 03:23:52;;;;;;;14.70;6.53;;;;;;;;;;5092989;28;20036;-77
2022/05/09 03:26:19;;;;;;;15.23;7.18;;;;;;;;;;5092675;28;20378;-78
2022/05/09 03:28:45;;;;;;;15.13;7.03;;;;;;;;;;5092784;28;20044;-78
2022/05/09 03:31:13;;;;;;;18.95;8.65;;;;;;;;;;5092805;28;20036;-77
2022/05/09 03:33:39;;;;;;;19.25;8.38;;;;;;;;;;5092866;28;20043;-78
2022/05/09 03:36:05;;;;;;;19.08;8.55;;;;;;;;;;5075525;28;20047;-77
2022/05/09 03:38:32;;;;;;;17.30;8.10;;;;;;;;;;5092483;28;20255;-78
2022/05/09 03:40:59;;;;;;;16.30;8.30;;;;;;;;;;5075703;28;20084;-78
2022/05/09 03:43:25;;;;;;;15.18;8.25;;;;;;;;;;5092571;28;20447;-76
2022/05/09 03:45:52;;;;;;;16.10;8.55;;;;;;;;;;5092261;28;20086;-77
2022/05/09 03:48:19;;;;;;;16.70;8.30;;;;;;;;;;5075480;28;20040;-77
2022/05/09 03:50:45;;;;;;;17.58;9.10;;;;;;;;;;5076913;28;20280;-77
2022/05/09 03:53:11;;;;;;;16.60;9.25;;;;;;;;;;5078565;28;20074;-77
2022/05/09 03:55:37;;;;;;;15.43;8.18;;;;;;;;;;5092859;28;20071;-77
2022/05/09 03:58:04;;;;;;;20.75;9.70;;;;;;;;;;5092509;28;20036;-76
2022/05/09 04:00:33;;;;;;;19.73;9.80;;;;;;;;;;5092352;28;20046;-76
2022/05/09 04:03:00;;;;;;;18.30;8.95;;;;;;;;;;5093212;28;20052;-76
2022/05/09 04:05:30;;;;;;;20.13;9.63;;;;;;;;;;5092830;28;20035;-77
2022/05/09 04:07:57;;;;;;;20.33;9.23;;;;;;;;;;5091957;28;20516;-77
2022/05/09 04:10:25;;;;;;;22.08;9.18;;;;;;;;;;5075486;28;20043;-77
2022/05/09 04:12:52;;;;;;;18.20;8.32;;;;;;;;;;5075223;28;20042;-76
2022/05/09 04:18:03;;;;;;;19.40;8.25;;;;;;;;;;5091584;28;20046;-77
2022/05/09 04:20:29;;;;;;;18.08;8.43;;;;;;;;;;5092385;28;20039;-77
2022/05/09 04:22:59;;;;;;;18.05;9.10;;;;;;;;;;5091944;28;20114;-77
2022/05/09 04:25:26;;;;;;;16.52;9.00;;;;;;;;;;5074181;28;20297;-77
2022/05/09 04:27:54;;;;;;;17.17;8.88;;;;;;;;;;5074649;28;20035;-77
2022/05/09 04:30:20;;;;;;;14.57;9.00;;;;;;;;;;5091612;28;20399;-77
2022/05/09 04:32:46;;;;;;;18.98;9.90;;;;;;;;;;5074923;28;20038;-77
2022/05/09 04:35:22;;;;;;;16.80;9.18;;;;;;;;;;5091436;28;20408;-77
2022/05/09 04:37:50;;;;;;;19.83;9.32;;;;;;;;;;5090839;28;20447;-77
2022/05/09 04:40:17;;;;;;;18.58;9.18;;;;;;;;;;5091140;28;20071;-77
2022/05/09 04:42:44;;;;;;;18.35;9.40;;;;;;;;;;5091810;28;20518;-77
2022/05/09 04:45:12;;;;;;;17.08;9.70;;;;;;;;;;5091262;28;20039;-77
2022/05/09 04:47:39;;;;;;;20.13;8.63;;;;;;;;;;5091395;28;20122;-77
2022/05/09 04:50:06;;;;;;;17.98;8.32;;;;;;;;;;5091519;28;20040;-77
2022/05/09 04:52:32;;;;;;;16.25;9.75;;;;;;;;;;5091748;28;20402;-77
2022/05/09 04:54:58;;;;;;;20.08;10.65;;;;;;;;;;5091538;28;20399;-77
2022/05/09 04:57:25;;;;;;;17.90;9.45;;;;;;;;;;5091579;28;20052;-77
2022/05/09 04:59:51;;;;;;;20.33;9.52;;;;;;;;;;5091240;28;20075;-77
2022/05/09 05:02:17;;;;;;;23.95;10.38;;;;;;;;;;5091012;28;20126;-76
2022/05/09 05:04:43;;;;;;;19.85;9.70;;;;;;;;;;5091216;28;20514;-77
2022/05/09 05:07:09;;;;;;;18.98;9.35;;;;;;;;;;5091036;28;20085;-77
2022/05/09 05:09:36;;;;;;;21.20;9.63;;;;;;;;;;5091587;28;20039;-77
2022/05/09 05:12:03;;;;;;;21.85;9.80;;;;;;;;;;5091450;28;20411;-76
2022/05/09 05:14:29;;;;;;;19.40;10.15;;;;;;;;;;5090837;28;20096;-76
2022/05/09 05:17:01;;;;;;;20.75;10.43;;;;;;;;;;5091124;28;20169;-77
2022/05/09 05:19:28;;;;;;;22.15;11.25;;;;;;;;;;5075100;28;20113;-77
2022/05/09 05:21:54;;;;;;;20.50;9.88;;;;;;;;;;5091402;28;20042;-77
2022/05/09 05:24:21;;;;;;;18.88;10.48;;;;;;;;;;5091071;28;20483;-76
2022/05/09 05:26:47;;;;;;;18.83;10.07;;;;;;;;;;5074256;28;20531;-77
2022/05/09 05:29:14;;;;;;;20.48;11.02;;;;;;;;;;5062344;28;20135;-77
2022/05/09 05:31:40;;;;;;;20.05;9.82;;;;;;;;;;5091543;28;20380;-77
2022/05/09 05:34:06;;;;;;;20.48;10.57;;;;;;;;;;5074212;28;20119;-77
2022/05/09 05:36:32;;;;;;;21.42;10.05;;;;;;;;;;5090330;28;20054;-77
2022/05/09 05:38:59;;;;;;;23.92;11.07;;;;;;;;;;5074131;28;20066;-76
2022/05/09 05:41:26;;;;;;;22.27;10.90;;;;;;;;;;5090716;28;20046;-77
2022/05/09 05:43:52;;;;;;;20.65;10.80;;;;;;;;;;5090572;28;20368;-78
2022/05/09 05:46:19;;;;;;;20.63;10.57;;;;;;;;;;5090236;28;20036;-77
2022/05/09 05:48:45;;;;;;;21.77;10.57;;;;;;;;;;5091629;28;20486;-76
2022/05/09 05:51:14;;;;;;;20.25;10.77;;;;;;;;;;5094791;28;20439;-77
2022/05/09 05:53:41;;;;;;;21.77;11.50;;;;;;;;;;5094979;28;20036;-76
2022/05/09 05:56:07;;;;;;;18.38;11.40;;;;;;;;;;5077724;28;20039;-77
2022/05/09 05:58:33;;;;;;;21.15;12.13;;;;;;;;;;5094123;28;20084;-78
2022/05/09 06:01:00;;;;;;;18.63;11.23;;;;;;;;;;5094557;28;20067;-77
2022/05/09 06:03:26;;;;;;;21.42;10.90;;;;;;;;;;5094287;28;20039;-77
2022/05/09 06:05:52;;;;;;;23.08;12.88;;;;;;;;;;5077489;28;20050;-78
2022/05/09 06:08:19;;;;;;;20.05;11.07;;;;;;;;;;5093155;28;20054;-78
2022/05/09 06:10:46;;;;;;;21.38;10.68;;;;;;;;;;5094164;28;20035;-77
2022/05/09 06:13:12;;;;;;;21.00;11.25;;;;;;;;;;5094247;28;20108;-78
2022/05/09 06:15:38;;;;;;;25.27;11.32;;;;;;;;;;5095965;28;20035;-78
2022/05/09 06:18:07;;;;;;;25.40;10.82;;;;;;;;;;5093644;28;20108;-78
2022/05/09 06:20:35;;;;;;;20.95;10.13;;;;;;;;;;5093693;28;20387;-77
2022/05/09 06:23:03;;;;;;;28.75;12.07;;;;;;;;;;5093519;28;20507;-78
2022/05/09 06:25:35;;;;;;;22.42;10.55;;;;;;;;;;5093801;28;20164;-78
2022/05/09 06:28:03;;;;;;;20.10;9.85;;;;;;;;;;5077090;28;20039;-78
2022/05/09 06:30:29;;;;;;;16.95;8.80;;;;;;;;;;5095719;28;20031;-77
2022/05/09 06:32:56;;;;;;;20.85;10.00;;;;;;;;;;5094619;28;20035;-78
2022/05/09 06:35:24;;;;;;;19.55;10.18;;;;;;;;;;5083075;28;20051;-79
2022/05/09 06:37:55;;;;;;;20.40;9.68;;;;;;;;;;5096959;28;20062;-79
2022/05/09 06:40:21;;;;;;;21.45;9.43;;;;;;;;;;5093154;28;20039;-78
2022/05/09 06:42:51;;;;;;;20.77;9.43;;;;;;;;;;5100730;28;20039;-78
2022/05/09 06:45:17;;;;;;;23.90;9.90;;;;;;;;;;5082318;28;20109;-78
2022/05/09 06:47:51;;;;;;;19.73;9.38;;;;;;;;;;5109549;28;20044;-78
2022/05/09 06:50:19;;;;;;;19.83;9.13;;;;;;;;;;5097742;28;20439;-78
2022/05/09 06:52:45;;;;;;;18.50;8.68;;;;;;;;;;5102742;28;20036;-80
2022/05/09 06:55:12;;;;;;;18.88;8.15;;;;;;;;;;5106133;28;20039;-79
2022/05/09 06:57:53;;;;;;;15.95;7.63;;;;;;;;;;5078567;28;20039;-78
2022/05/09 07:00:21;;;;;;;19.88;8.50;;;;;;;;;;5094964;28;20051;-78
2022/05/09 07:02:48;;;;;;;13.02;7.13;;;;;;;;;;5095267;28;20088;-78
2022/05/09 07:05:18;;;;;;;18.52;7.93;;;;;;;;;;5125055;27;20040;-78
2022/05/09 07:07:44;;;;;;;19.38;7.57;;;;;;;;;;5112600;28;20122;-79
2022/05/09 07:10:11;;;;;;;13.00;6.90;;;;;;;;;;5095836;28;20035;-78
2022/05/09 07:12:42;;;;;;;17.70;7.35;;;;;;;;;;5095560;28;20107;-78
2022/05/09 07:15:08;;;;;;;15.23;7.18;;;;;;;;;;5095194;28;20078;-78
2022/05/09 07:17:34;;;;;;;13.05;6.88;;;;;;;;;;5110320;28;20035;-79
2022/05/09 07:20:01;;;;;;;13.23;6.20;;;;;;;;;;5100855;28;20432;-78
2022/05/09 07:22:27;;;;;;;16.77;6.30;;;;;;;;;;5085611;28;20057;-78
2022/05/09 07:24:53;;;;;;;15.50;6.45;;;;;;;;;;5109984;28;20039;-79
2022/05/09 07:27:19;;;;;;;14.98;6.32;;;;;;;;;;5095525;28;20084;-80
2022/05/09 07:29:45;;;;;;;12.30;6.32;;;;;;;;;;5112654;28;20036;-79
2022/05/09 07:32:12;;;;;;;15.60;5.95;;;;;;;;;;5112084;28;20035;-78
2022/05/09 07:34:38;;;;;;;18.17;6.43;;;;;;;;;;5095392;28;20040;-79
2022/05/09 07:37:04;;;;;;;14.88;5.40;;;;;;;;;;5111523;28;20043;-79
2022/05/09 07:39:31;;;;;;;15.32;6.05;;;;;;;;;;5112315;28;20637;-78
2022/05/09 07:41:57;;;;;;;15.70;5.68;;;;;;;;;;5094950;28;20224;-78
2022/05/09 07:44:24;;;;;;;17.85;6.45;;;;;;;;;;5111748;28;20046;-79
2022/05/09 07:46:50;;;;;;;17.05;7.03;;;;;;;;;;5111523;28;20044;-78
2022/05/09 07:49:16;;;;;;;14.98;6.95;;;;;;;;;;5094753;28;20042;-78
2022/05/09 07:51:42;;;;;;;12.57;6.85;;;;;;;;;;5111544;28;20051;-78
2022/05/09 07:54:09;;;;;;;14.50;6.00;;;;;;;;;;5098010;28;20035;-78
2022/05/09 07:56:35;;;;;;;13.57;5.40;;;;;;;;;;5108373;28;20383;-77
2022/05/09 07:59:02;;;;;;;12.45;5.68;;;;;;;;;;5095649;28;20159;-78
2022/05/09 08:01:28;;;;;;;14.82;5.90;;;;;;;;;;5101934;28;20044;-79
2022/05/09 08:03:57;;;;;;;12.02;5.20;;;;;;;;;;5103450;28;20043;-79
2022/05/09 08:06:23;;;;;;;18.67;6.25;;;;;;;;;;5076322;28;20043;-80
2022/05/09 08:08:50;;;;;;;14.10;5.32;;;;;;;;;;5088787;28;20075;-79
2022/05/09 08:11:17;;;;;;;15.77;5.97;;;;;;;;;;5091238;28;20039;-79
2022/05/09 08:13:43;;;;;;;15.75;5.45;;;;;;;;;;5102849;28;20073;-79
2022/05/09 08:16:10;;;;;;;12.23;5.68;;;;;;;;;;5093748;28;20038;-79
2022/05/09 08:18:36;;;;;;;14.23;6.47;;;;;;;;;;5089492;28;20514;-80
2022/05/09 08:21:03;;;;;;;11.68;5.75;;;;;;;;;;5115307;27;20373;-79
2022/05/09 08:23:30;;;;;;;10.77;5.00;;;;;;;;;;5097916;28;20047;-78
2022/05/09 08:25:58;;;;;;;13.43;6.13;;;;;;;;;;5106788;28;20047;-79
2022/05/09 08:28:24;;;;;;;13.82;6.07;;;;;;;;;;5110779;27;20292;-79
2022/05/09 08:30:52;;;;;;;12.68;5.28;;;;;;;;;;5102451;28;20430;-80
2022/05/09 08:33:26;;;;;;;12.40;5.20;;;;;;;;;;5128291;27;21098;-79
2022/05/09 08:35:53;;;;;;;19.20;5.78;;;;;;;;;;5128512;28;20478;-79
2022/05/09 08:38:20;;;;;;;20.10;9.82;;;;;;;;;;5121527;28;20126;-79
2022/05/09 08:40:49;;;;;;;13.13;6.18;;;;;;;;;;5090385;28;20043;-79
2022/05/09 08:43:16;;;;;;;14.20;5.25;;;;;;;;;;5105107;28;20084;-80
2022/05/09 08:45:47;;;;;;;10.40;4.60;;;;;;;;;;5128145;28;20043;-79
2022/05/09 08:48:33;;;;;;;13.32;4.72;;;;;;;;;;5127763;28;20047;-79
2022/05/09 08:51:05;;;;;;;13.30;4.93;;;;;;;;;;5108828;28;20040;-79
2022/05/09 08:53:33;;;;;;;10.48;4.40;;;;;;;;;;5097841;28;20036;-79
2022/05/09 08:56:00;;;;;;;11.90;5.18;;;;;;;;;;5095920;28;20042;-79
2022/05/09 08:58:26;;;;;;;11.50;4.60;;;;;;;;;;5115779;28;20035;-79
2022/05/09 09:00:53;;;;;;;9.60;4.55;;;;;;;;;;5106154;28;20100;-80
2022/05/09 09:03:29;;;;;;;14.48;5.40;;;;;;;;;;5090798;28;20043;-80
2022/05/09 09:05:57;;;;;;;11.98;4.97;;;;;;;;;;5087366;28;20051;-79
2022/05/09 09:08:29;;;;;;;11.13;4.60;;;;;;;;;;5105797;28;20040;-80
2022/05/09 09:11:17;;;;;;;13.00;4.82;;;;;;;;;;5105923;28;20039;-79
2022/05/09 09:13:46;;;;;;;13.60;5.20;;;;;;;;;;5087278;28;20051;-79
2022/05/09 09:16:44;;;;;;;49.17;6.97;;;;;;;;;;5106219;28;20035;-79
2022/05/09 09:19:30;;;;;;;10.52;4.95;;;;;;;;;;5093604;28;20525;-80
2022/05/09 09:21:57;;;;;;;;;;;;;;;;;;5110717;28;20122;-80
2022/05/09 09:24:32;;;;;;;13.75;5.15;;;;;;;;;;5127115;28;19915;-81
2022/05/09 09:27:31;;;;;;;12.43;4.47;;;;;;;;;;5109894;28;20078;-80
2022/05/09 09:30:08;;;;;;;11.55;3.80;;;;;;;;;;5087041;28;20051;-81
2022/05/09 09:32:36;;;;;;;11.60;4.35;;;;;;;;;;5093272;28;20052;-80
2022/05/09 09:35:12;;;;;;;12.25;4.00;;;;;;;;;;5106257;28;20050;-82
2022/05/09 09:37:41;;;;;;;12.82;3.83;;;;;;;;;;5089376;28;20066;-82
2022/05/09 09:40:08;;;;;;;9.55;3.65;;;;;;;;;;5106453;28;20078;-81
2022/05/09 09:42:34;;;;;;;9.60;3.15;;;;;;;;;;5090181;28;20487;-80
2022/05/09 09:45:03;;;;;;;10.05;4.22;;;;;;;;;;5113024;28;20096;-82
2022/05/09 09:47:30;;;;;;;7.88;3.60;;;;;;;;;;5084393;28;20044;-81
2022/05/09 09:50:12;;;;;;;10.93;3.30;;;;;;;;;;5103494;28;20094;-82
2022/05/09 09:52:58;;;;;;;10.10;3.28;;;;;;;;;;5112530;28;20048;-81
2022/05/09 09:55:24;;;;;;;13.30;3.70;;;;;;;;;;5111107;28;20035;-82
2022/05/09 09:57:50;;;;;;;11.55;3.28;;;;;;;;;;5112847;28;20032;-80
2022/05/09 10:00:20;;;;;;;12.57;3.72;;;;;;;;;;5109509;28;20044;-82
2022/05/09 10:02:49;;;;;;;12.07;3.20;;;;;;;;;;5074853;28;20491;-82
2022/05/09 10:05:18;;;;;;;10.60;3.42;;;;;;;;;;5062862;28;20044;-83
2022/05/09 10:07:45;;;;;;;8.63;3.40;;;;;;;;;;5066978;28;20036;-81
2022/05/09 10:10:11;;;;;;;10.05;4.03;;;;;;;;;;5091075;28;20043;-81
2022/05/09 10:12:42;;;;;;;12.25;3.80;;;;;;;;;;5104314;28;20144;-82
2022/05/09 10:15:26;;;;;;;10.93;3.35;;;;;;;;;;5100132;28;20031;-84
2022/05/09 10:17:52;;;;;;;9.60;3.72;;;;;;;;;;5093578;28;20106;-81
2022/05/09 10:20:23;;;;;;;10.63;4.15;;;;;;;;;;5088699;28;20093;-79
2022/05/09 10:25:37;;;;;;;12.68;4.05;;;;;;;;;;5094696;28;20118;-79
2022/05/09 10:28:14;;;;;;;10.77;3.40;;;;;;;;;;5089398;28;20043;-81
2022/05/09 10:30:43;;;;;;;10.65;3.20;;;;;;;;;;5072774;28;20411;-80
2022/05/09 10:33:12;;;;;;;9.23;3.08;;;;;;;;;;5084754;28;20055;-79
2022/05/09 10:35:40;;;;;;;9.02;3.70;;;;;;;;;;5092912;28;20062;-81
2022/05/09 10:38:11;;;;;;;12.05;3.10;;;;;;;;;;5104653;28;20036;-79
2022/05/09 10:40:41;;;;;;;9.25;3.40;;;;;;;;;;5098674;28;20078;-81
2022/05/09 10:43:11;;;;;;;8.50;3.08;;;;;;;;;;5078204;28;20051;-81
2022/05/09 10:45:42;;;;;;;12.35;4.28;;;;;;;;;;5088347;28;20044;-80
2022/05/09 10:48:15;;;;;;;11.40;3.47;;;;;;;;;;5078768;28;20212;-81
2022/05/09 10:51:08;;;;;;;9.45;3.78;;;;;;;;;;5097861;28;20495;-81
2022/05/09 10:53:46;;;;;;;9.60;3.60;;;;;;;;;;5102699;28;20108;-79
2022/05/09 10:56:16;;;;;;;9.07;3.25;;;;;;;;;;5095965;28;20043;-80
2022/05/09 10:58:52;;;;;;;13.10;4.15;;;;;;;;;;5096626;28;20069;-81
2022/05/09 11:01:37;;;;;;;9.20;3.75;;;;;;;;;;5088285;28;20113;-79
2022/05/09 11:04:03;;;;;;;8.98;3.33;;;;;;;;;;5080053;28;20467;-81
2022/05/09 11:06:48;;;;;;;8.23;3.15;;;;;;;;;;5096885;28;20134;-81
2022/05/09 11:09:19;;;;;;;5.85;2.50;;;;;;;;;;5088248;28;20044;-80
2022/05/09 11:11:54;;;;;;;7.93;2.90;;;;;;;;;;5095373;28;20036;-81
2022/05/09 11:14:34;;;;;;;8.75;2.60;;;;;;;;;;5079971;28;20040;-80
2022/05/09 11:17:25;;;;;;;8.68;3.13;;;;;;;;;;5087897;28;20078;-81
2022/05/09 11:19:57;;;;;;;7.78;2.70;;;;;;;;;;5070577;28;20564;-81
2022/05/09 11:22:47;;;;;;;11.60;3.33;;;;;;;;;;5085356;28;20032;-81
2022/05/09 11:25:16;;;;;;;10.27;3.33;;;;;;;;;;5070854;28;20052;-79
2022/05/09 11:27:58;;;;;;;8.20;2.75;;;;;;;;;;5109331;28;20527;-79
2022/05/09 11:30:30;;;;;;;8.13;2.90;;;;;;;;;;5093908;28;20499;-80
2022/05/09 11:33:15;;;;;;;7.32;3.03;;;;;;;;;;5104386;28;20048;-79
2022/05/09 11:35:41;;;;;;;;;;;;;;;;;;5081347;28;20591;-79
2022/05/09 11:38:26;;;;;;;7.85;3.08;;;;;;;;;;5094589;28;19927;-80
2022/05/09 11:41:11;;;;;;;10.50;3.38;;;;;;;;;;5087476;28;20377;-80
2022/05/09 11:43:46;;;;;;;7.82;2.72;;;;;;;;;;5097825;28;20044;-80
2022/05/09 11:46:40;;;;;;;8.90;2.60;;;;;;;;;;5108076;28;20046;-80
2022/05/09 11:49:06;;;;;;;8.38;2.97;;;;;;;;;;5077003;28;20078;-81
2022/05/09 11:51:38;;;;;;;6.28;3.08;;;;;;;;;;5081096;28;20047;-80
2022/05/09 11:54:08;;;;;;;8.07;2.92;;;;;;;;;;5103730;28;20039;-80
2022/05/09 11:56:34;;;;;;;7.45;2.90;;;;;;;;;;5091754;28;20506;-80
2022/05/09 11:59:01;;;;;;;9.00;2.90;;;;;;;;;;5084137;28;20491;-79
2022/05/09 12:01:46;;;;;;;7.38;2.95;;;;;;;;;;5098691;28;20096;-80
2022/05/09 12:04:47;;;;;;;5.10;2.30;;;;;;;;;;5091594;28;20036;-79
2022/05/09 12:07:22;;;;;;;10.75;3.10;;;;;;;;;;5059010;28;20117;-81
2022/05/09 12:10:02;;;;;;;5.70;2.17;;;;;;;;;;5097460;28;20078;-81
2022/05/09 12:12:38;;;;;;;6.53;2.95;;;;;;;;;;5055068;28;20125;-80
2022/05/09 12:15:05;;;;;;;8.68;2.78;;;;;;;;;;5097404;28;20062;-80
2022/05/09 12:17:36;;;;;;;8.13;3.38;;;;;;;;;;5093913;28;20044;-81
2022/05/09 12:20:07;;;;;;;9.05;2.88;;;;;;;;;;5104182;28;20046;-81
2022/05/09 12:22:49;;;;;;;11.60;3.60;;;;;;;;;;5077226;28;20135;-80
2022/05/09 12:25:36;;;;;;;7.78;2.60;;;;;;;;;;5107541;28;20047;-79
2022/05/09 12:28:20;;;;;;;9.63;3.30;;;;;;;;;;5083697;28;20047;-82
2022/05/09 12:30:49;;;;;;;8.85;2.72;;;;;;;;;;5081181;28;20237;-80
2022/05/09 12:33:21;;;;;;;7.43;2.38;;;;;;;;;;5087148;28;20064;-81
2022/05/09 12:35:49;;;;;;;6.85;2.80;;;;;;;;;;5090578;28;20042;-81
2022/05/09 12:38:21;;;;;;;7.30;2.42;;;;;;;;;;5101304;28;20066;-80
2022/05/09 12:40:47;;;;;;;11.30;3.22;;;;;;;;;;5098209;28;20044;-81
2022/05/09 12:43:13;;;;;;;8.57;3.10;;;;;;;;;;5075610;28;20418;-81
2022/05/09 12:45:40;;;;;;;8.55;2.70;;;;;;;;;;5103726;28;20510;-80
2022/05/09 12:48:09;;;;;;;6.40;2.80;;;;;;;;;;5093788;28;20040;-81
2022/05/09 12:50:39;;;;;;;10.23;3.47;;;;;;;;;;5096350;28;20040;-81
2022/05/09 12:53:08;;;;;;;9.15;2.63;;;;;;;;;;5102409;28;20480;-80
2022/05/09 12:55:55;;;;;;;9.23;2.83;;;;;;;;;;5087318;28;20031;-79
2022/05/09 12:58:21;;;;;;;9.02;2.58;;;;;;;;;;5096901;28;20040;-80
2022/05/09 13:00:48;;;;;;;8.38;3.10;;;;;;;;;;5076566;28;20561;-80
2022/05/09 13:03:15;;;;;;;8.05;2.63;;;;;;;;;;5103229;28;20048;-80
2022/05/09 13:05:43;;;;;;;8.90;3.20;;;;;;;;;;5109462;28;20092;-80
2022/05/09 13:08:10;;;;;;;8.23;2.83;;;;;;;;;;5080484;28;20131;-79
2022/05/09 13:10:46;;;;;;;9.73;3.05;;;;;;;;;;5100753;28;20077;-79
2022/05/09 13:13:18;;;;;;;7.53;3.10;;;;;;;;;;5090582;28;20107;-79
2022/05/09 13:15:44;;;;;;;8.73;3.08;;;;;;;;;;5083436;28;20036;-84
2022/05/09 13:18:11;;;;;;;7.93;2.67;;;;;;;;;;5099030;28;20127;-86
2022/05/09 13:20:41;;;;;;;6.47;2.55;;;;;;;;;;5095564;28;20428;-81
2022/05/09 13:23:10;;;;;;;7.40;3.03;;;;;;;;;;5090149;28;20080;-81
2022/05/09 13:26:00;;;;;;;8.05;2.95;;;;;;;;;;5098380;28;20118;-82
2022/05/09 13:28:29;;;;;;;7.35;2.35;;;;;;;;;;5129789;27;20399;-81
2022/05/09 13:30:56;;;;;;;8.18;2.78;;;;;;;;;;5075329;28;20105;-81
2022/05/09 13:33:28;;;;;;;8.82;3.30;;;;;;;;;;5098585;28;20084;-79
2022/05/09 13:36:03;;;;;;;9.38;3.63;;;;;;;;;;5099925;28;20044;-80
2022/05/09 13:38:42;;;;;;;9.32;3.30;;;;;;;;;;5091380;28;20036;-81
2022/05/09 13:41:11;;;;;;;6.70;3.08;;;;;;;;;;5097016;28;20075;-82
2022/05/09 13:43:40;;;;;;;7.40;3.22;;;;;;;;;;5100818;28;20086;-80
2022/05/09 13:46:10;;;;;;;8.00;3.20;;;;;;;;;;5088583;28;20035;-81
2022/05/09 13:48:37;;;;;;;9.23;3.78;;;;;;;;;;5094114;28;20048;-81
2022/05/09 13:51:03;;;;;;;9.57;3.28;;;;;;;;;;5060497;28;20102;-80
2022/05/09 13:53:35;;;;;;;7.13;2.78;;;;;;;;;;5101063;28;20035;-81
2022/05/09 13:56:01;;;;;;;9.25;2.67;;;;;;;;;;5095737;28;20523;-81
2022/05/09 13:58:30;;;;;;;8.98;2.78;;;;;;;;;;5106985;28;20232;-81
2022/05/09 14:00:58;;;;;;;7.30;2.80;;;;;;;;;;5080325;28;20118;-81
2022/05/09 14:03:35;;;;;;;7.57;3.17;;;;;;;;;;5098647;28;20039;-81
2022/05/09 14:06:02;;;;;;;10.77;3.10;;;;;;;;;;5106742;28;20530;-81
2022/05/09 14:08:29;;;;;;;7.28;2.90;;;;;;;;;;5089909;28;20045;-80
2022/05/09 14:11:03;;;;;;;6.95;2.47;;;;;;;;;;5081474;28;20130;-81
2022/05/09 14:13:33;;;;;;;10.57;3.20;;;;;;;;;;5096907;28;20044;-80
2022/05/09 14:16:07;;;;;;;8.23;2.95;;;;;;;;;;5107947;28;20100;-80
2022/05/09 14:18:41;;;;;;;8.15;2.70;;;;;;;;;;5103578;28;20162;-79
2022/05/09 14:21:08;;;;;;;8.20;2.83;;;;;;;;;;5101510;28;20520;-80
2022/05/09 14:23:35;;;;;;;9.80;2.83;;;;;;;;;;5095168;28;20104;-80
2022/05/09 14:31:46;;;;;;;8.13;2.40;;;;;;;;;;5092914;28;20052;-81
2022/05/09 14:34:30;;;;;;;8.38;2.40;;;;;;;;;;5104534;28;20045;-82
2022/05/09 14:37:08;;;;;;;8.73;2.67;;;;;;;;;;5085328;28;20097;-82
2022/05/09 14:39:39;;;;;;;8.23;2.47;;;;;;;;;;5093550;28;20048;-80
2022/05/09 14:42:05;;;;;;;8.13;2.28;;;;;;;;;;5103992;28;20047;-79
2022/05/09 14:44:32;;;;;;;6.47;2.33;;;;;;;;;;5072476;28;20043;-79
2022/05/09 14:46:58;;;;;;;7.45;2.40;;;;;;;;;;5102946;28;20050;-79
2022/05/09 14:49:24;;;;;;;7.72;2.60;;;;;;;;;;5092854;28;20769;-80
2022/05/09 14:52:00;;;;;;;8.20;2.50;;;;;;;;;;5104211;28;20123;-79
2022/05/09 14:54:28;;;;;;;5.97;2.30;;;;;;;;;;5099521;28;20704;-78
2022/05/09 14:59:45;;;;;;;6.53;2.33;;;;;;;;;;5079001;28;20050;-81
2022/05/09 15:02:30;;;;;;;6.57;2.28;;;;;;;;;;5099647;28;20065;-79
2022/05/09 15:05:00;;;;;;;6.03;2.30;;;;;;;;;;5094417;28;20380;-80
2022/05/09 15:07:27;;;;;;;7.63;2.05;;;;;;;;;;5076641;28;20050;-80
2022/05/09 15:09:53;;;;;;;4.85;1.80;;;;;;;;;;5084426;28;20648;-79